Startpagina
METAR-TAF:

METAR-TAF

Vliegvelden :

Vlieland Heliport

Vlieland, Nederland

breedte: 53-15N, lengte: 004-55E, hoogte: 11 m

Actueel weer

Dit bericht is 35 minuten geleden gemaakt, om 05:25 UTC
Wind 16 kt uit het noordwesten
Temperatuur 4°C
Vochtigheid 60%
Druk 1027 hPa
Zicht 10 km of meer
Geheel bewolkt op 3200 ft

METAR: EHVL 070525Z AUTO 31016KT 9999 OVC032 04/M03 Q1027 BLU

Tijdstip: 07:00 (06:00 UTC)


TAF: ontbreekt

Waarnemingen en weersverwachtingen van meer dan 4000 vliegvelden (METAR en TAF).

De beschikbare stations zijn de gele en rode punten op de kaart.

Ga met uw muis naar het station om de naam te zien.

Klik dan om waarnemingen en weersverwachtingen te zien.

kaart wijzigen: klik op de groene knoppen met een zwart kruis om in te zoomen, op de groene knop met een streepje om uit te zoomen of op de groene pijlen voor aangrenzende kaarten.


METAR-TAF: